ETD201 VABB-OMAA
Flight info
| Callsign | ETD201 |
|---|---|
| Flight time | 2h 45m |
| Altitude | 36000 |
| Route | SAKUN V1 BIMOT DCT DOGET DCT PARAR M628 TULBU N563 NOBTO |
| Aircraft | A21N/M-SDE3FGHIRWY/LB1 |
Departure
| Time | 2026-05-04 14:07 |
|---|---|
| Airport | Chhatrapati Shivaji Maharaj International Airport (VABB) |
Arrival
| Time | 2026-05-04 16:52 |
|---|---|
| Airport | Zayed International Airport (OMAA) |
| Time | Latitude | Longitude | Altitude | Speed | Heading |
|---|---|---|---|---|---|
| 2026-05-04 13:48 | 19.09336 | 72.87209 | 46 ft | 0 kts | 340° |
| 2026-05-04 13:58 | 19.09322 | 72.87214 | 46 ft | 2 kts | 340° |
| 2026-05-04 13:58 | 19.09292 | 72.87219 | 46 ft | 2 kts | 6° |
| 2026-05-04 13:58 | 19.09278 | 72.87215 | 46 ft | 2 kts | 20° |
| 2026-05-04 13:59 | 19.09264 | 72.87208 | 46 ft | 2 kts | 33° |
| 2026-05-04 13:59 | 19.09252 | 72.87198 | 46 ft | 2 kts | 46° |
| 2026-05-04 13:59 | 19.09237 | 72.87172 | 46 ft | 2 kts | 72° |
| 2026-05-04 14:00 | 19.09233 | 72.87157 | 46 ft | 1 kts | 85° |
| 2026-05-04 14:00 | 19.09233 | 72.87147 | 46 ft | 0 kts | 90° |
| 2026-05-04 14:02 | 19.09233 | 72.87152 | 46 ft | 1 kts | 90° |
| 2026-05-04 14:02 | 19.09233 | 72.87171 | 46 ft | 3 kts | 90° |
| 2026-05-04 14:02 | 19.09234 | 72.87203 | 46 ft | 5 kts | 88° |
| 2026-05-04 14:02 | 19.09222 | 72.87244 | 46 ft | 6 kts | 126° |
| 2026-05-04 14:03 | 19.09178 | 72.87264 | 46 ft | 7 kts | 178° |
| 2026-05-04 14:03 | 19.09119 | 72.87265 | 46 ft | 9 kts | 179° |
| 2026-05-04 14:03 | 19.09059 | 72.87292 | 46 ft | 10 kts | 122° |
| 2026-05-04 14:03 | 19.09050 | 72.87373 | 46 ft | 11 kts | 89° |
| 2026-05-04 14:04 | 19.09052 | 72.87561 | 46 ft | 13 kts | 89° |
| 2026-05-04 14:04 | 19.09053 | 72.87666 | 46 ft | 14 kts | 89° |
| 2026-05-04 14:04 | 19.09055 | 72.87777 | 46 ft | 15 kts | 89° |
| 2026-05-04 14:05 | 19.09058 | 72.88016 | 46 ft | 16 kts | 99° |
| 2026-05-04 14:05 | 19.08962 | 72.88052 | 46 ft | 16 kts | 186° |
| 2026-05-04 14:05 | 19.08887 | 72.87978 | 46 ft | 16 kts | 268° |
| 2026-05-04 14:06 | 19.08887 | 72.87965 | 46 ft | 0 kts | 269° |
| 2026-05-04 14:06 | 19.08885 | 72.87839 | 46 ft | 51 kts | 269° |
| 2026-05-04 14:06 | 19.08874 | 72.87189 | 46 ft | 122 kts | 268° |
| 2026-05-04 14:06 | 19.08858 | 72.86089 | 142 ft | 167 kts | 266° |
| 2026-05-04 14:07 | 19.08882 | 72.84854 | 819 ft | 167 kts | 268° |
| 2026-05-04 14:07 | 19.08882 | 72.83658 | 1610 ft | 161 kts | 266° |
| 2026-05-04 14:07 | 19.08862 | 72.82481 | 2165 ft | 161 kts | 265° |
| 2026-05-04 14:07 | 19.08829 | 72.81235 | 2506 ft | 178 kts | 266° |
| 2026-05-04 14:08 | 19.08797 | 72.79863 | 2885 ft | 194 kts | 268° |
| 2026-05-04 14:08 | 19.08772 | 72.78378 | 3250 ft | 211 kts | 268° |
| 2026-05-04 14:08 | 19.08743 | 72.76726 | 3527 ft | 235 kts | 268° |
| 2026-05-04 14:08 | 19.08717 | 72.74918 | 3982 ft | 252 kts | 269° |
| 2026-05-04 14:09 | 19.09020 | 72.71162 | 5527 ft | 260 kts | 280° |
| 2026-05-04 14:09 | 19.09322 | 72.69279 | 6318 ft | 262 kts | 277° |
| 2026-05-04 14:10 | 19.09765 | 72.65411 | 7761 ft | 270 kts | 276° |
| 2026-05-04 14:10 | 19.09985 | 72.63416 | 8487 ft | 274 kts | 276° |
| 2026-05-04 14:10 | 19.10203 | 72.61422 | 9177 ft | 278 kts | 276° |
| 2026-05-04 14:10 | 19.10426 | 72.59368 | 9861 ft | 283 kts | 277° |
| 2026-05-04 14:11 | 19.10652 | 72.57268 | 10357 ft | 294 kts | 277° |
| 2026-05-04 14:11 | 19.11142 | 72.52711 | 10969 ft | 329 kts | 277° |
| 2026-05-04 14:11 | 19.11406 | 72.50246 | 11260 ft | 345 kts | 277° |
| 2026-05-04 14:12 | 19.11682 | 72.47672 | 11541 ft | 361 kts | 277° |
| 2026-05-04 14:12 | 19.11970 | 72.44972 | 11844 ft | 375 kts | 277° |
| 2026-05-04 14:12 | 19.12561 | 72.39428 | 13024 ft | 385 kts | 277° |
| 2026-05-04 14:13 | 19.12863 | 72.36581 | 13687 ft | 387 kts | 277° |
| 2026-05-04 14:13 | 19.13165 | 72.33737 | 14315 ft | 390 kts | 276° |
| 2026-05-04 14:13 | 19.13454 | 72.30993 | 14915 ft | 393 kts | 276° |
| 2026-05-04 14:13 | 19.13759 | 72.28092 | 15528 ft | 395 kts | 276° |
| 2026-05-04 14:14 | 19.14063 | 72.25196 | 16130 ft | 398 kts | 276° |
| 2026-05-04 14:14 | 19.14676 | 72.19349 | 17305 ft | 403 kts | 276° |
| 2026-05-04 14:14 | 19.14989 | 72.16372 | 17879 ft | 406 kts | 276° |
| 2026-05-04 14:15 | 19.15903 | 72.10459 | 18985 ft | 412 kts | 285° |
| 2026-05-04 14:15 | 19.18125 | 72.04835 | 20090 ft | 416 kts | 297° |
| 2026-05-04 14:16 | 19.20861 | 71.99429 | 21148 ft | 421 kts | 298° |
| 2026-05-04 14:16 | 19.22252 | 71.96692 | 21665 ft | 422 kts | 298° |
| 2026-05-04 14:17 | 19.25039 | 71.91187 | 22661 ft | 425 kts | 298° |
| 2026-05-04 14:17 | 19.26440 | 71.88410 | 23128 ft | 427 kts | 298° |
| 2026-05-04 14:17 | 19.29250 | 71.82823 | 24008 ft | 431 kts | 298° |
| 2026-05-04 14:18 | 19.30666 | 71.80003 | 24426 ft | 433 kts | 298° |
| 2026-05-04 14:18 | 19.33499 | 71.74355 | 25224 ft | 435 kts | 298° |
| 2026-05-04 14:19 | 19.36338 | 71.68690 | 25987 ft | 437 kts | 299° |
| 2026-05-04 14:19 | 19.37763 | 71.65843 | 26499 ft | 435 kts | 299° |
| 2026-05-04 14:19 | 19.39178 | 71.63013 | 27035 ft | 431 kts | 299° |
| 2026-05-04 14:19 | 19.40570 | 71.60229 | 27534 ft | 428 kts | 299° |
| 2026-05-04 14:20 | 19.41963 | 71.57443 | 28009 ft | 426 kts | 300° |
| 2026-05-04 14:20 | 19.43344 | 71.54678 | 28467 ft | 424 kts | 300° |
| 2026-05-04 14:20 | 19.44706 | 71.51949 | 28913 ft | 421 kts | 300° |
| 2026-05-04 14:21 | 19.47436 | 71.46481 | 29781 ft | 417 kts | 300° |
| 2026-05-04 14:21 | 19.48798 | 71.43748 | 30200 ft | 415 kts | 300° |
| 2026-05-04 14:21 | 19.50141 | 71.41059 | 30574 ft | 414 kts | 300° |
| 2026-05-04 14:21 | 19.51475 | 71.38387 | 30892 ft | 413 kts | 300° |
| 2026-05-04 14:22 | 19.52832 | 71.35661 | 31193 ft | 414 kts | 300° |
| 2026-05-04 14:22 | 19.54173 | 71.32961 | 31491 ft | 414 kts | 299° |
| 2026-05-04 14:22 | 19.55505 | 71.30267 | 31786 ft | 414 kts | 299° |
| 2026-05-04 14:22 | 19.56832 | 71.27588 | 32077 ft | 413 kts | 299° |
| 2026-05-04 14:23 | 19.59485 | 71.22160 | 32618 ft | 414 kts | 297° |
| 2026-05-04 14:23 | 19.60675 | 71.19357 | 32880 ft | 415 kts | 294° |
| 2026-05-04 14:23 | 19.61720 | 71.16512 | 33141 ft | 415 kts | 291° |
| 2026-05-04 14:24 | 19.62655 | 71.13608 | 33397 ft | 415 kts | 290° |
| 2026-05-04 14:24 | 19.63558 | 71.10728 | 33642 ft | 415 kts | 290° |
| 2026-05-04 14:24 | 19.64468 | 71.07814 | 33884 ft | 414 kts | 290° |
| 2026-05-04 14:24 | 19.65371 | 71.04921 | 34089 ft | 415 kts | 290° |
| 2026-05-04 14:25 | 19.66280 | 71.02006 | 34271 ft | 416 kts | 290° |
| 2026-05-04 14:25 | 19.68097 | 70.96178 | 34630 ft | 417 kts | 289° |
| 2026-05-04 14:25 | 19.69012 | 70.93241 | 34806 ft | 417 kts | 289° |
| 2026-05-04 14:26 | 19.69925 | 70.90312 | 34973 ft | 418 kts | 289° |
| 2026-05-04 14:26 | 19.70840 | 70.87372 | 35122 ft | 419 kts | 289° |
| 2026-05-04 14:26 | 19.71768 | 70.84390 | 35259 ft | 420 kts | 289° |
| 2026-05-04 14:26 | 19.72680 | 70.81457 | 35402 ft | 420 kts | 289° |
| 2026-05-04 14:27 | 19.73595 | 70.78513 | 35562 ft | 420 kts | 289° |
| 2026-05-04 14:27 | 19.74512 | 70.75558 | 35703 ft | 420 kts | 289° |
| 2026-05-04 14:27 | 19.76337 | 70.69675 | 35718 ft | 421 kts | 289° |
| 2026-05-04 14:28 | 19.78172 | 70.63755 | 35721 ft | 421 kts | 289° |
| 2026-05-04 14:28 | 19.79998 | 70.57858 | 35722 ft | 421 kts | 289° |
| 2026-05-04 14:29 | 19.83659 | 70.46008 | 35722 ft | 420 kts | 289° |
| 2026-05-04 14:30 | 19.85474 | 70.40127 | 35722 ft | 420 kts | 289° |
| 2026-05-04 14:31 | 19.88182 | 70.31252 | 35723 ft | 420 kts | 289° |
| 2026-05-04 14:32 | 19.91717 | 70.19440 | 35723 ft | 419 kts | 289° |
| 2026-05-04 14:32 | 19.93481 | 70.13554 | 35723 ft | 419 kts | 289° |
| 2026-05-04 14:33 | 19.95252 | 70.07644 | 35723 ft | 419 kts | 289° |
| 2026-05-04 14:33 | 19.97028 | 70.01711 | 35723 ft | 419 kts | 289° |
| 2026-05-04 14:34 | 19.98789 | 69.95821 | 35722 ft | 419 kts | 289° |
| 2026-05-04 14:34 | 20.00501 | 69.90086 | 35723 ft | 419 kts | 289° |
| 2026-05-04 14:35 | 20.02258 | 69.84197 | 35722 ft | 419 kts | 289° |
| 2026-05-04 14:35 | 20.04027 | 69.78256 | 35722 ft | 419 kts | 289° |
| 2026-05-04 14:36 | 20.05783 | 69.72354 | 35722 ft | 419 kts | 289° |
| 2026-05-04 14:36 | 20.07537 | 69.66447 | 35722 ft | 419 kts | 289° |
| 2026-05-04 14:37 | 20.09285 | 69.60553 | 35722 ft | 418 kts | 289° |
| 2026-05-04 14:37 | 20.11052 | 69.54629 | 35723 ft | 418 kts | 289° |
| 2026-05-04 14:38 | 20.12815 | 69.48757 | 35723 ft | 418 kts | 289° |
| 2026-05-04 14:38 | 20.14579 | 69.42830 | 35724 ft | 418 kts | 289° |
| 2026-05-04 14:39 | 20.16320 | 69.36951 | 35723 ft | 417 kts | 289° |
| 2026-05-04 14:39 | 20.18053 | 69.31058 | 35723 ft | 417 kts | 288° |
| 2026-05-04 14:40 | 20.20647 | 69.22205 | 35722 ft | 417 kts | 288° |
| 2026-05-04 14:40 | 20.22379 | 69.16299 | 35723 ft | 417 kts | 288° |
| 2026-05-04 14:41 | 20.24107 | 69.10404 | 35722 ft | 417 kts | 288° |
| 2026-05-04 14:42 | 20.27555 | 68.98621 | 35728 ft | 416 kts | 288° |
| 2026-05-04 14:42 | 20.29286 | 68.92694 | 35734 ft | 416 kts | 288° |
| 2026-05-04 14:43 | 20.31007 | 68.86795 | 35740 ft | 417 kts | 288° |
| 2026-05-04 14:43 | 20.32731 | 68.80875 | 35746 ft | 417 kts | 288° |
| 2026-05-04 14:44 | 20.34448 | 68.74970 | 35748 ft | 417 kts | 288° |
| 2026-05-04 14:44 | 20.36168 | 68.69049 | 35749 ft | 417 kts | 288° |
| 2026-05-04 14:45 | 20.37879 | 68.63146 | 35749 ft | 417 kts | 288° |
| 2026-05-04 14:45 | 20.39583 | 68.57263 | 35749 ft | 417 kts | 288° |
| 2026-05-04 14:46 | 20.41294 | 68.51350 | 35749 ft | 417 kts | 288° |
| 2026-05-04 14:46 | 20.42997 | 68.45454 | 35748 ft | 417 kts | 288° |
| 2026-05-04 14:47 | 20.44700 | 68.39552 | 35749 ft | 417 kts | 288° |
| 2026-05-04 14:47 | 20.46407 | 68.33620 | 35751 ft | 418 kts | 288° |
| 2026-05-04 14:48 | 20.48106 | 68.27683 | 35749 ft | 418 kts | 288° |
| 2026-05-04 14:48 | 20.49803 | 68.21755 | 35749 ft | 418 kts | 288° |
| 2026-05-04 14:49 | 20.51492 | 68.15861 | 35749 ft | 418 kts | 288° |
| 2026-05-04 14:49 | 20.53193 | 68.09918 | 35749 ft | 418 kts | 288° |
| 2026-05-04 14:50 | 20.54891 | 68.03979 | 35745 ft | 418 kts | 288° |
| 2026-05-04 14:50 | 20.56583 | 67.98057 | 35740 ft | 418 kts | 288° |
| 2026-05-04 14:51 | 20.58273 | 67.92131 | 35734 ft | 417 kts | 288° |
| 2026-05-04 14:51 | 20.59968 | 67.86180 | 35728 ft | 417 kts | 288° |
| 2026-05-04 14:52 | 20.61661 | 67.80225 | 35724 ft | 418 kts | 288° |
| 2026-05-04 14:52 | 20.63340 | 67.74313 | 35723 ft | 418 kts | 288° |
| 2026-05-04 14:53 | 20.65022 | 67.68381 | 35723 ft | 418 kts | 288° |
| 2026-05-04 14:53 | 20.66702 | 67.62447 | 35722 ft | 417 kts | 288° |
| 2026-05-04 14:54 | 20.68383 | 67.56505 | 35722 ft | 417 kts | 288° |
| 2026-05-04 14:54 | 20.70059 | 67.50568 | 35722 ft | 417 kts | 288° |
| 2026-05-04 14:55 | 20.71732 | 67.44634 | 35722 ft | 417 kts | 288° |
| 2026-05-04 14:55 | 20.73397 | 67.38722 | 35722 ft | 417 kts | 288° |
| 2026-05-04 14:56 | 20.75064 | 67.32786 | 35723 ft | 417 kts | 288° |
| 2026-05-04 14:56 | 20.76724 | 67.26842 | 35723 ft | 417 kts | 288° |
| 2026-05-04 14:57 | 20.78385 | 67.20905 | 35723 ft | 417 kts | 288° |
| 2026-05-04 14:57 | 20.80042 | 67.14981 | 35723 ft | 416 kts | 288° |
| 2026-05-04 14:58 | 20.81698 | 67.09054 | 35723 ft | 416 kts | 288° |
| 2026-05-04 14:58 | 20.83356 | 67.03117 | 35723 ft | 416 kts | 288° |
| 2026-05-04 14:59 | 20.85009 | 66.97187 | 35723 ft | 416 kts | 288° |
| 2026-05-04 15:00 | 20.87479 | 66.88310 | 35722 ft | 416 kts | 288° |
| 2026-05-04 15:00 | 20.89131 | 66.82359 | 35722 ft | 417 kts | 288° |
| 2026-05-04 15:01 | 20.91601 | 66.73447 | 35722 ft | 417 kts | 288° |
| 2026-05-04 15:01 | 20.93253 | 66.67478 | 35722 ft | 417 kts | 288° |
| 2026-05-04 15:02 | 20.94890 | 66.61553 | 35722 ft | 417 kts | 288° |
| 2026-05-04 15:02 | 20.96534 | 66.55592 | 35722 ft | 417 kts | 288° |
| 2026-05-04 15:03 | 20.98171 | 66.49651 | 35722 ft | 417 kts | 288° |
| 2026-05-04 15:03 | 20.99806 | 66.43707 | 35722 ft | 417 kts | 288° |
| 2026-05-04 15:04 | 21.01448 | 66.37727 | 35722 ft | 416 kts | 288° |
| 2026-05-04 15:04 | 21.03076 | 66.31783 | 35723 ft | 416 kts | 287° |
| 2026-05-04 15:05 | 21.04695 | 66.25851 | 35723 ft | 416 kts | 287° |
| 2026-05-04 15:05 | 21.06325 | 66.19886 | 35723 ft | 416 kts | 287° |
| 2026-05-04 15:06 | 21.07946 | 66.13957 | 35723 ft | 415 kts | 287° |
| 2026-05-04 15:07 | 21.10382 | 66.05038 | 35723 ft | 415 kts | 288° |
| 2026-05-04 15:07 | 21.12336 | 65.99223 | 35721 ft | 415 kts | 293° |
| 2026-05-04 15:08 | 21.14798 | 65.93626 | 35720 ft | 416 kts | 297° |
| 2026-05-04 15:08 | 21.17414 | 65.88078 | 35713 ft | 416 kts | 297° |
| 2026-05-04 15:09 | 21.20017 | 65.82555 | 35703 ft | 416 kts | 297° |
| 2026-05-04 15:09 | 21.22609 | 65.77048 | 35692 ft | 415 kts | 297° |
| 2026-05-04 15:10 | 21.26538 | 65.68684 | 35677 ft | 415 kts | 297° |
| 2026-05-04 15:11 | 21.30431 | 65.60384 | 35671 ft | 415 kts | 297° |
| 2026-05-04 15:11 | 21.33017 | 65.54862 | 35670 ft | 415 kts | 297° |
| 2026-05-04 15:12 | 21.35615 | 65.49307 | 35669 ft | 415 kts | 297° |
| 2026-05-04 15:12 | 21.38204 | 65.43766 | 35669 ft | 415 kts | 297° |
| 2026-05-04 15:13 | 21.40793 | 65.38219 | 35669 ft | 415 kts | 297° |
| 2026-05-04 15:13 | 21.43367 | 65.32695 | 35670 ft | 415 kts | 296° |
| 2026-05-04 15:14 | 21.45939 | 65.27145 | 35669 ft | 415 kts | 296° |
| 2026-05-04 15:14 | 21.48516 | 65.21594 | 35669 ft | 415 kts | 296° |
| 2026-05-04 15:15 | 21.51110 | 65.16009 | 35673 ft | 416 kts | 296° |
| 2026-05-04 15:15 | 21.53681 | 65.10471 | 35677 ft | 416 kts | 296° |
| 2026-05-04 15:16 | 21.57570 | 65.02083 | 35683 ft | 416 kts | 296° |
| 2026-05-04 15:17 | 21.61452 | 64.93698 | 35686 ft | 416 kts | 296° |
| 2026-05-04 15:17 | 21.65342 | 64.85284 | 35682 ft | 416 kts | 296° |
| 2026-05-04 15:18 | 21.67913 | 64.79713 | 35677 ft | 416 kts | 296° |
| 2026-05-04 15:19 | 21.71775 | 64.71340 | 35671 ft | 418 kts | 296° |
| 2026-05-04 15:19 | 21.75648 | 64.62923 | 35669 ft | 418 kts | 296° |
| 2026-05-04 15:20 | 21.78223 | 64.57320 | 35669 ft | 418 kts | 296° |
| 2026-05-04 15:20 | 21.80810 | 64.51686 | 35669 ft | 418 kts | 296° |
| 2026-05-04 15:21 | 21.83379 | 64.46082 | 35669 ft | 418 kts | 296° |
| 2026-05-04 15:22 | 21.87231 | 64.37673 | 35669 ft | 417 kts | 296° |
| 2026-05-04 15:22 | 21.91072 | 64.29247 | 35670 ft | 417 kts | 296° |
| 2026-05-04 15:23 | 21.93628 | 64.23630 | 35676 ft | 417 kts | 296° |
| 2026-05-04 15:23 | 21.96175 | 64.18037 | 35685 ft | 417 kts | 296° |
| 2026-05-04 15:24 | 22.01281 | 64.06819 | 35693 ft | 417 kts | 296° |
| 2026-05-04 15:25 | 22.03835 | 64.01200 | 35694 ft | 417 kts | 296° |
| 2026-05-04 15:26 | 22.07660 | 63.92775 | 35694 ft | 417 kts | 296° |
| 2026-05-04 15:26 | 22.11494 | 63.84341 | 35694 ft | 417 kts | 296° |
| 2026-05-04 15:27 | 22.15326 | 63.75942 | 35694 ft | 417 kts | 296° |
| 2026-05-04 15:28 | 22.19150 | 63.67492 | 35694 ft | 417 kts | 296° |
| 2026-05-04 15:29 | 22.22951 | 63.59065 | 35694 ft | 416 kts | 296° |
| 2026-05-04 15:30 | 22.31788 | 63.39403 | 35694 ft | 416 kts | 296° |
| 2026-05-04 15:31 | 22.35565 | 63.30954 | 35695 ft | 416 kts | 295° |
| 2026-05-04 15:32 | 22.41657 | 63.16782 | 35693 ft | 415 kts | 290° |
| 2026-05-04 15:34 | 22.44817 | 63.01457 | 35694 ft | 418 kts | 276° |
| 2026-05-04 15:34 | 22.45430 | 62.92032 | 35694 ft | 418 kts | 275° |
| 2026-05-04 15:35 | 22.46023 | 62.82620 | 35694 ft | 418 kts | 275° |
| 2026-05-04 15:36 | 22.46611 | 62.73206 | 35694 ft | 418 kts | 275° |
| 2026-05-04 15:36 | 22.46999 | 62.66950 | 35693 ft | 418 kts | 275° |
| 2026-05-04 15:37 | 22.47384 | 62.60689 | 35694 ft | 419 kts | 275° |
| 2026-05-04 15:37 | 22.47769 | 62.54396 | 35694 ft | 419 kts | 275° |
| 2026-05-04 15:38 | 22.48154 | 62.48077 | 35694 ft | 419 kts | 275° |
| 2026-05-04 15:38 | 22.48536 | 62.41743 | 35694 ft | 419 kts | 275° |
| 2026-05-04 15:39 | 22.48916 | 62.35406 | 35694 ft | 419 kts | 275° |
| 2026-05-04 15:40 | 22.49473 | 62.25993 | 35694 ft | 419 kts | 275° |
| 2026-05-04 15:40 | 22.49845 | 62.19675 | 35694 ft | 420 kts | 275° |
| 2026-05-04 15:41 | 22.50212 | 62.13408 | 35694 ft | 420 kts | 275° |
| 2026-05-04 15:41 | 22.50580 | 62.07096 | 35694 ft | 420 kts | 275° |
| 2026-05-04 15:42 | 22.50946 | 62.00767 | 35694 ft | 420 kts | 275° |
| 2026-05-04 15:42 | 22.51307 | 61.94499 | 35694 ft | 420 kts | 275° |
| 2026-05-04 15:43 | 22.51668 | 61.88160 | 35694 ft | 420 kts | 275° |
| 2026-05-04 15:43 | 22.52026 | 61.81834 | 35694 ft | 420 kts | 275° |
| 2026-05-04 15:44 | 22.52379 | 61.75561 | 35694 ft | 420 kts | 275° |
| 2026-05-04 15:44 | 22.52734 | 61.69207 | 35694 ft | 420 kts | 275° |
| 2026-05-04 15:45 | 22.53083 | 61.62921 | 35694 ft | 420 kts | 275° |
| 2026-05-04 15:45 | 22.53430 | 61.56613 | 35694 ft | 419 kts | 275° |
| 2026-05-04 15:46 | 22.53774 | 61.50332 | 35694 ft | 419 kts | 275° |
| 2026-05-04 15:46 | 22.54116 | 61.44031 | 35694 ft | 419 kts | 275° |
| 2026-05-04 15:47 | 22.54456 | 61.37721 | 35694 ft | 419 kts | 275° |
| 2026-05-04 15:47 | 22.54785 | 61.31562 | 35694 ft | 419 kts | 274° |
| 2026-05-04 15:48 | 22.55117 | 61.25268 | 35694 ft | 419 kts | 274° |
| 2026-05-04 15:48 | 22.55615 | 61.15799 | 35694 ft | 420 kts | 274° |
| 2026-05-04 15:49 | 22.55944 | 61.09462 | 35694 ft | 420 kts | 274° |
| 2026-05-04 15:49 | 22.56270 | 61.03161 | 35694 ft | 420 kts | 274° |
| 2026-05-04 15:50 | 22.56594 | 60.96822 | 35694 ft | 420 kts | 274° |
| 2026-05-04 15:50 | 22.56916 | 60.90492 | 35694 ft | 420 kts | 274° |
| 2026-05-04 15:51 | 22.57236 | 60.84192 | 35693 ft | 420 kts | 274° |
| 2026-05-04 15:51 | 22.57556 | 60.77829 | 35694 ft | 421 kts | 274° |
| 2026-05-04 15:52 | 22.57869 | 60.71512 | 35694 ft | 421 kts | 274° |
| 2026-05-04 15:52 | 22.58178 | 60.65214 | 35694 ft | 421 kts | 274° |
| 2026-05-04 15:53 | 22.58488 | 60.58847 | 35694 ft | 421 kts | 274° |
| 2026-05-04 15:53 | 22.58795 | 60.52525 | 35694 ft | 422 kts | 274° |
| 2026-05-04 15:54 | 22.59104 | 60.46151 | 35694 ft | 422 kts | 274° |
| 2026-05-04 15:54 | 22.59407 | 60.39806 | 35694 ft | 422 kts | 274° |
| 2026-05-04 15:55 | 22.59707 | 60.33462 | 35695 ft | 422 kts | 274° |
| 2026-05-04 15:55 | 22.59921 | 60.28880 | 35694 ft | 423 kts | 274° |
| 2026-05-04 15:56 | 22.60218 | 60.22468 | 35694 ft | 423 kts | 274° |
| 2026-05-04 15:56 | 22.60509 | 60.16157 | 35694 ft | 423 kts | 274° |
| 2026-05-04 15:57 | 22.60799 | 60.09802 | 35694 ft | 423 kts | 274° |
| 2026-05-04 15:57 | 22.61088 | 60.03416 | 35694 ft | 423 kts | 274° |
| 2026-05-04 15:58 | 22.61374 | 59.97066 | 35694 ft | 423 kts | 274° |
| 2026-05-04 15:58 | 22.61657 | 59.90704 | 35692 ft | 424 kts | 274° |
| 2026-05-04 15:59 | 22.61939 | 59.84294 | 35687 ft | 424 kts | 274° |
| 2026-05-04 15:59 | 22.62217 | 59.77925 | 35680 ft | 424 kts | 274° |
| 2026-05-04 16:00 | 22.62495 | 59.71532 | 35674 ft | 424 kts | 274° |
| 2026-05-04 16:00 | 22.62770 | 59.65180 | 35670 ft | 424 kts | 274° |
| 2026-05-04 16:01 | 22.63043 | 59.58772 | 35669 ft | 423 kts | 274° |
| 2026-05-04 16:01 | 22.63312 | 59.52398 | 35669 ft | 423 kts | 274° |
| 2026-05-04 16:02 | 22.63579 | 59.46034 | 35669 ft | 423 kts | 274° |
| 2026-05-04 16:03 | 22.63975 | 59.36447 | 35669 ft | 423 kts | 274° |
| 2026-05-04 16:03 | 22.64233 | 59.30088 | 35670 ft | 423 kts | 273° |
| 2026-05-04 16:04 | 22.64490 | 59.23703 | 35669 ft | 423 kts | 273° |
| 2026-05-04 16:04 | 22.64869 | 59.14187 | 35669 ft | 423 kts | 273° |
| 2026-05-04 16:05 | 22.65120 | 59.07815 | 35669 ft | 423 kts | 273° |
| 2026-05-04 16:06 | 22.65492 | 58.98239 | 35669 ft | 423 kts | 273° |
| 2026-05-04 16:07 | 22.65979 | 58.85484 | 35669 ft | 423 kts | 273° |
| 2026-05-04 16:08 | 22.66454 | 58.72731 | 35669 ft | 423 kts | 273° |
| 2026-05-04 16:09 | 22.67979 | 58.56917 | 35669 ft | 422 kts | 283° |
| 2026-05-04 16:10 | 22.71101 | 58.44646 | 35669 ft | 422 kts | 286° |
| 2026-05-04 16:11 | 22.74308 | 58.32386 | 35669 ft | 422 kts | 285° |
| 2026-05-04 16:12 | 22.79083 | 58.14011 | 35669 ft | 422 kts | 285° |
| 2026-05-04 16:13 | 22.82267 | 58.01728 | 35669 ft | 422 kts | 285° |
| 2026-05-04 16:14 | 22.85439 | 57.89451 | 35669 ft | 422 kts | 285° |
| 2026-05-04 16:16 | 22.89383 | 57.74095 | 35669 ft | 421 kts | 285° |
| 2026-05-04 16:17 | 22.93205 | 57.58745 | 35669 ft | 420 kts | 285° |
| 2026-05-04 16:18 | 22.96258 | 57.46452 | 35669 ft | 420 kts | 285° |
| 2026-05-04 16:19 | 23.00343 | 57.31181 | 35671 ft | 421 kts | 290° |
| 2026-05-04 16:20 | 23.06716 | 57.16890 | 35670 ft | 421 kts | 296° |
| 2026-05-04 16:22 | 23.13481 | 57.02713 | 35674 ft | 420 kts | 296° |
| 2026-05-04 16:23 | 23.21549 | 56.85713 | 35711 ft | 420 kts | 296° |
| 2026-05-04 16:25 | 23.29552 | 56.68742 | 35721 ft | 419 kts | 296° |
| 2026-05-04 16:26 | 23.38838 | 56.48970 | 35548 ft | 418 kts | 296° |
| 2026-05-04 16:27 | 23.41485 | 56.43315 | 34888 ft | 414 kts | 296° |
| 2026-05-04 16:28 | 23.45373 | 56.35001 | 33234 ft | 409 kts | 296° |
| 2026-05-04 16:28 | 23.49264 | 56.26637 | 31247 ft | 412 kts | 295° |
| 2026-05-04 16:29 | 23.54476 | 56.15434 | 28318 ft | 420 kts | 295° |
| 2026-05-04 16:30 | 23.58484 | 56.06823 | 25724 ft | 433 kts | 296° |
| 2026-05-04 16:31 | 23.61224 | 56.00931 | 24409 ft | 429 kts | 296° |
| 2026-05-04 16:31 | 23.65227 | 55.92301 | 22746 ft | 420 kts | 296° |
| 2026-05-04 16:32 | 23.69120 | 55.83888 | 21186 ft | 410 kts | 297° |
| 2026-05-04 16:33 | 23.71680 | 55.78352 | 20143 ft | 404 kts | 297° |
| 2026-05-04 16:33 | 23.74179 | 55.72937 | 19104 ft | 398 kts | 297° |
| 2026-05-04 16:34 | 23.76661 | 55.67551 | 18072 ft | 393 kts | 298° |
| 2026-05-04 16:34 | 23.77875 | 55.64917 | 17564 ft | 390 kts | 298° |
| 2026-05-04 16:35 | 23.81502 | 55.57034 | 16028 ft | 380 kts | 298° |
| 2026-05-04 16:35 | 23.84858 | 55.49330 | 12800 ft | 377 kts | 295° |
| 2026-05-04 16:36 | 23.85926 | 55.46732 | 11872 ft | 370 kts | 295° |
| 2026-05-04 16:36 | 23.88001 | 55.41709 | 10371 ft | 349 kts | 295° |
| 2026-05-04 16:37 | 23.89868 | 55.37175 | 10012 ft | 302 kts | 295° |
| 2026-05-04 16:37 | 23.90699 | 55.35157 | 9707 ft | 288 kts | 295° |
| 2026-05-04 16:37 | 23.92326 | 55.31211 | 8572 ft | 281 kts | 296° |
| 2026-05-04 16:38 | 23.94099 | 55.27406 | 7735 ft | 278 kts | 298° |
| 2026-05-04 16:39 | 23.96727 | 55.21847 | 6580 ft | 272 kts | 298° |
| 2026-05-04 16:39 | 23.98478 | 55.18285 | 6098 ft | 256 kts | 309° |
| 2026-05-04 16:40 | 24.01116 | 55.15886 | 5642 ft | 243 kts | 324° |
| 2026-05-04 16:40 | 24.03870 | 55.13680 | 4841 ft | 243 kts | 322° |
| 2026-05-04 16:41 | 24.06551 | 55.11441 | 4136 ft | 239 kts | 321° |
| 2026-05-04 16:41 | 24.10506 | 55.08067 | 4026 ft | 239 kts | 321° |
| 2026-05-04 16:42 | 24.14460 | 55.04697 | 4015 ft | 239 kts | 321° |
| 2026-05-04 16:43 | 24.17096 | 55.02434 | 4009 ft | 239 kts | 321° |
| 2026-05-04 16:43 | 24.19735 | 55.00165 | 4004 ft | 239 kts | 321° |
| 2026-05-04 16:43 | 24.21051 | 54.99033 | 4001 ft | 239 kts | 321° |
| 2026-05-04 16:44 | 24.25350 | 54.93616 | 3000 ft | 229 kts | 308° |
| 2026-05-04 16:45 | 24.27236 | 54.91024 | 2988 ft | 213 kts | 308° |
| 2026-05-04 16:46 | 24.29988 | 54.87160 | 2986 ft | 213 kts | 308° |
| 2026-05-04 16:46 | 24.31666 | 54.84783 | 3042 ft | 183 kts | 308° |
| 2026-05-04 16:47 | 24.33217 | 54.82585 | 2995 ft | 181 kts | 308° |
| 2026-05-04 16:47 | 24.34771 | 54.80384 | 3036 ft | 182 kts | 308° |
| 2026-05-04 16:48 | 24.36976 | 54.77268 | 2377 ft | 159 kts | 308° |
| 2026-05-04 16:48 | 24.37646 | 54.76323 | 2167 ft | 153 kts | 308° |
| 2026-05-04 16:49 | 24.38916 | 54.74530 | 1768 ft | 147 kts | 308° |
| 2026-05-04 16:49 | 24.40174 | 54.72756 | 1374 ft | 145 kts | 308° |
| 2026-05-04 16:50 | 24.41417 | 54.71003 | 997 ft | 144 kts | 307° |
| 2026-05-04 16:50 | 24.42641 | 54.69259 | 645 ft | 143 kts | 307° |
| 2026-05-04 16:51 | 24.43862 | 54.67542 | 251 ft | 142 kts | 307° |
| 2026-05-04 16:51 | 24.44477 | 54.66680 | 102 ft | 141 kts | 308° |
| 2026-05-04 16:51 | 24.45343 | 54.65464 | 92 ft | 51 kts | 308° |
| 2026-05-04 16:52 | 24.45626 | 54.64974 | 92 ft | 34 kts | 284° |
| 2026-05-04 16:52 | 24.45659 | 54.64789 | 92 ft | 16 kts | 281° |
| 2026-05-04 16:53 | 24.45656 | 54.64584 | 92 ft | 16 kts | 176° |
| 2026-05-04 16:53 | 24.45428 | 54.64878 | 92 ft | 17 kts | 128° |
| 2026-05-04 16:54 | 24.45350 | 54.64988 | 92 ft | 18 kts | 128° |
| 2026-05-04 16:55 | 24.44973 | 54.65088 | 92 ft | 19 kts | 218° |
| 2026-05-04 16:55 | 24.44759 | 54.64908 | 92 ft | 19 kts | 218° |
| 2026-05-04 16:56 | 24.44539 | 54.64721 | 92 ft | 20 kts | 217° |
| 2026-05-04 16:56 | 24.44305 | 54.64405 | 92 ft | 19 kts | 310° |
| 2026-05-04 16:57 | 24.44394 | 54.64290 | 92 ft | 19 kts | 315° |
| 2026-05-04 16:57 | 24.44644 | 54.64166 | 92 ft | 19 kts | 339° |
| 2026-05-04 16:58 | 24.44956 | 54.64044 | 92 ft | 4 kts | 338° |
| 2026-05-04 16:58 | 24.44969 | 54.64038 | 92 ft | 0 kts | 338° |